createdAt,value
2023-02-26T00:00:20.292Z,1.47
2023-02-26T00:06:09.934Z,1.55
2023-02-26T00:11:16.346Z,1.45
2023-02-26T00:16:23.680Z,1.46
2023-02-26T00:21:29.734Z,1.52
2023-02-26T00:26:36.322Z,1.44
2023-02-26T00:31:42.431Z,1.47
2023-02-26T00:36:48.657Z,1.35
2023-02-26T00:41:58.022Z,1.55
2023-02-26T00:47:04.276Z,1.45
2023-02-26T00:52:10.440Z,1.42
2023-02-26T00:57:16.625Z,1.40
2023-02-26T01:02:22.759Z,1.36
2023-02-26T01:07:29.051Z,1.33
2023-02-26T01:12:35.239Z,2.06
2023-02-26T01:17:42.950Z,2.06
2023-02-26T01:22:49.061Z,1.45
2023-02-26T01:27:56.378Z,1.50
2023-02-26T01:33:02.893Z,1.40
2023-02-26T01:38:09.134Z,1.42
2023-02-26T01:43:15.192Z,1.45
2023-02-26T01:48:21.526Z,1.48
2023-02-26T01:53:28.489Z,1.53
2023-02-26T01:58:34.680Z,1.43
2023-02-26T02:03:41.153Z,1.69
2023-02-26T02:08:47.246Z,1.38
2023-02-26T02:13:53.436Z,1.54
2023-02-26T02:19:02.330Z,1.65
2023-02-26T02:24:09.545Z,1.39
2023-02-26T02:29:14.204Z,1.69
2023-02-26T02:34:20.305Z,1.57
2023-02-26T02:39:26.452Z,1.42
2023-02-26T02:44:32.545Z,1.48
2023-02-26T02:49:38.738Z,1.40
2023-02-26T02:54:44.917Z,1.55
2023-02-26T02:59:51.100Z,1.45
2023-02-26T03:04:57.271Z,1.53
2023-02-26T03:10:04.506Z,1.38
2023-02-26T03:15:10.587Z,1.54
2023-02-26T03:20:16.873Z,1.43
2023-02-26T03:25:22.909Z,1.48
2023-02-26T03:30:29.154Z,1.52
2023-02-26T03:35:35.348Z,1.45
2023-02-26T03:40:41.521Z,1.53
2023-02-26T03:45:47.692Z,1.52
2023-02-26T03:50:54.027Z,1.39
2023-02-26T03:56:00.225Z,2.10
2023-02-26T04:01:06.966Z,1.50
2023-02-26T04:06:12.961Z,1.54
2023-02-26T04:11:19.174Z,1.56
2023-02-26T04:16:25.600Z,1.61
2023-02-26T04:21:30.965Z,1.55
2023-02-26T04:26:37.109Z,1.48
2023-02-26T04:32:31.183Z,1.38
2023-02-26T04:37:37.226Z,1.58
2023-02-26T04:42:43.724Z,1.50
2023-02-26T04:47:49.032Z,1.53
2023-02-26T04:52:55.244Z,1.48
2023-02-26T04:58:01.379Z,1.54
2023-02-26T05:03:07.609Z,1.58
2023-02-26T05:08:13.779Z,1.39
2023-02-26T05:13:20.033Z,1.59
2023-02-26T05:18:26.121Z,1.51
2023-02-26T05:23:32.303Z,1.41
2023-02-26T05:28:38.378Z,1.34
2023-02-26T05:33:45.490Z,1.56
2023-02-26T05:38:51.543Z,1.79
2023-02-26T05:43:57.786Z,1.54
2023-02-26T05:49:03.863Z,1.51
2023-02-26T05:54:10.142Z,1.35
2023-02-26T05:59:16.227Z,1.42
2023-02-26T06:04:22.558Z,1.40
2023-02-26T06:09:28.702Z,1.49
2023-02-26T06:14:34.865Z,1.41
2023-02-26T06:19:40.912Z,1.50
2023-02-26T06:24:47.180Z,1.62
2023-02-26T06:29:53.242Z,1.46
2023-02-26T06:34:59.393Z,1.48
2023-02-26T06:40:05.487Z,1.47
2023-02-26T06:45:11.804Z,1.61
2023-02-26T06:50:17.972Z,1.84
2023-02-26T06:55:24.281Z,1.46
2023-02-26T07:00:30.423Z,1.36
2023-02-26T07:05:36.514Z,1.41
2023-02-26T07:10:42.612Z,1.52
2023-02-26T07:15:48.822Z,1.80
2023-02-26T07:20:54.940Z,1.58
2023-02-26T07:26:01.108Z,2.19
2023-02-26T07:31:07.229Z,2.02
2023-02-26T07:36:13.414Z,2.32
2023-02-26T07:41:19.565Z,2.27
2023-02-26T07:46:26.191Z,1.66
2023-02-26T07:51:32.591Z,1.64
2023-02-26T07:56:37.170Z,1.49
2023-02-26T08:01:43.376Z,1.45
2023-02-26T08:06:49.466Z,1.47
2023-02-26T08:11:55.532Z,1.48
2023-02-26T08:17:01.751Z,1.45
2023-02-26T08:22:07.838Z,1.40
2023-02-26T08:27:14.018Z,1.28
2023-02-26T08:32:20.309Z,1.32
2023-02-26T08:37:26.395Z,1.61
2023-02-26T08:42:32.496Z,1.40
2023-02-26T08:47:42.390Z,1.37
2023-02-26T08:52:44.390Z,1.37
2023-02-26T08:57:50.614Z,1.22
2023-02-26T09:02:56.847Z,1.42
2023-02-26T09:08:06.204Z,1.20
2023-02-26T09:13:12.371Z,1.35
2023-02-26T09:18:18.578Z,1.54
2023-02-26T09:23:24.740Z,1.30
2023-02-26T09:28:31.469Z,1.15
2023-02-26T09:33:37.590Z,1.28
2023-02-26T09:38:43.851Z,1.24
2023-02-26T09:43:50.026Z,1.13
2023-02-26T09:48:56.208Z,1.10
2023-02-26T09:54:02.308Z,1.17
2023-02-26T09:59:08.572Z,1.13
2023-02-26T10:04:15.148Z,1.34
2023-02-26T10:09:21.494Z,1.03
2023-02-26T10:14:27.668Z,1.20
2023-02-26T10:19:33.818Z,1.22
2023-02-26T10:24:40.011Z,1.18
2023-02-26T10:29:46.217Z,1.14
2023-02-26T10:34:52.321Z,1.20
2023-02-26T10:39:58.544Z,1.09
2023-02-26T10:45:04.626Z,1.30
2023-02-26T10:50:10.861Z,1.18
2023-02-26T10:55:16.970Z,1.23
2023-02-26T11:00:23.197Z,1.13
2023-02-26T11:05:29.328Z,1.19
2023-02-26T11:10:35.625Z,1.13
2023-02-26T11:15:41.827Z,1.16
2023-02-26T11:20:47.974Z,0.93
2023-02-26T11:25:54.066Z,1.10
2023-02-26T11:31:00.364Z,1.11
2023-02-26T11:36:06.338Z,1.29
2023-02-26T11:41:12.618Z,1.07
2023-02-26T11:46:18.730Z,1.23
2023-02-26T11:51:25.421Z,1.02
2023-02-26T11:56:30.720Z,1.32
2023-02-26T12:01:36.899Z,1.07
2023-02-26T12:06:42.981Z,1.16
2023-02-26T12:11:49.218Z,1.03
2023-02-26T12:16:55.382Z,1.09
2023-02-26T12:22:01.599Z,1.09
2023-02-26T12:27:07.680Z,0.94
2023-02-26T12:32:14.158Z,1.05
2023-02-26T12:37:20.108Z,0.95
2023-02-26T12:42:26.266Z,1.13
2023-02-26T12:47:32.356Z,1.05
2023-02-26T12:52:41.664Z,1.25
2023-02-26T12:57:47.788Z,1.21
2023-02-26T13:02:53.921Z,1.09
2023-02-26T13:08:00.020Z,1.10
2023-02-26T13:13:06.510Z,1.11
2023-02-26T13:18:12.641Z,1.09
2023-02-26T13:23:18.847Z,0.99
2023-02-26T13:28:25.016Z,1.00
2023-02-26T13:33:31.984Z,1.04
2023-02-26T13:38:38.049Z,1.86
2023-02-26T13:43:44.404Z,1.24
2023-02-26T13:48:50.534Z,1.19
2023-02-26T13:53:56.919Z,1.71
2023-02-26T13:59:02.983Z,1.86
2023-02-26T14:04:09.338Z,1.56
2023-02-26T14:09:15.425Z,1.37
2023-02-26T14:14:21.752Z,1.29
2023-02-26T14:19:27.912Z,1.15
2023-02-26T14:24:34.233Z,1.09
2023-02-26T14:29:40.349Z,1.18
2023-02-26T14:34:46.582Z,1.20
2023-02-26T14:39:52.702Z,1.34
2023-02-26T14:44:58.960Z,1.33
2023-02-26T14:50:05.147Z,1.22
2023-02-26T14:55:11.320Z,1.85
2023-02-26T15:00:17.488Z,1.47
2023-02-26T15:05:23.703Z,1.22
2023-02-26T15:10:29.850Z,1.25
2023-02-26T15:15:36.224Z,1.40
2023-02-26T15:20:42.370Z,1.26
2023-02-26T15:25:48.650Z,1.14
2023-02-26T15:30:54.860Z,1.13
2023-02-26T15:36:00.913Z,1.26
2023-02-26T15:41:07.073Z,1.50
2023-02-26T15:46:13.362Z,1.56
2023-02-26T15:51:19.763Z,1.33
2023-02-26T15:56:26.251Z,1.21
2023-02-26T16:01:31.689Z,1.35
2023-02-26T16:06:37.815Z,1.42
2023-02-26T16:11:43.954Z,1.47
2023-02-26T16:16:50.580Z,1.74
2023-02-26T16:21:56.772Z,1.53
2023-02-26T16:27:02.928Z,1.64
2023-02-26T16:32:09.118Z,1.65
2023-02-26T16:37:15.141Z,1.68
2023-02-26T16:42:21.614Z,1.77
2023-02-26T16:47:27.903Z,1.51
2023-02-26T16:52:34.048Z,1.72
2023-02-26T16:57:40.301Z,1.47
2023-02-26T17:02:46.387Z,2.01
2023-02-26T17:07:52.599Z,2.07
2023-02-26T17:12:58.745Z,1.94
2023-02-26T17:18:04.904Z,1.65
2023-02-26T17:23:10.959Z,1.91
2023-02-26T17:28:17.193Z,1.86
2023-02-26T17:33:23.320Z,1.60
2023-02-26T17:38:29.861Z,1.71
2023-02-26T17:43:35.962Z,2.02
2023-02-26T17:48:42.276Z,2.62
2023-02-26T17:53:48.426Z,2.34
2023-02-26T17:58:54.989Z,2.28
2023-02-26T18:04:01.200Z,1.85
2023-02-26T18:09:07.455Z,1.99
2023-02-26T18:14:13.584Z,2.04
2023-02-26T18:19:19.810Z,2.29
2023-02-26T18:24:25.860Z,2.46
2023-02-26T18:29:32.997Z,2.57
2023-02-26T18:34:39.155Z,2.67
2023-02-26T18:39:45.452Z,2.83
2023-02-26T18:45:04.915Z,3.21
2023-02-26T18:50:13.635Z,3.26
2023-02-26T18:55:16.790Z,3.21
2023-02-26T19:00:23.115Z,3.40
2023-02-26T19:05:29.320Z,4.06
2023-02-26T19:10:35.629Z,4.07
2023-02-26T19:15:41.775Z,3.67
2023-02-26T19:20:48.100Z,4.79
2023-02-26T19:25:54.245Z,6.00
2023-02-26T19:31:00.446Z,5.38
2023-02-26T19:36:06.548Z,6.16
2023-02-26T19:41:12.863Z,6.97
2023-02-26T19:46:19.998Z,6.72
2023-02-26T19:51:26.490Z,6.51
2023-02-26T19:56:32.398Z,7.05
2023-02-26T20:01:38.578Z,6.88
2023-02-26T20:06:44.701Z,7.56
2023-02-26T20:11:50.966Z,7.60
2023-02-26T20:16:57.022Z,7.44
2023-02-26T20:22:03.193Z,7.88
2023-02-26T20:27:09.361Z,8.38
2023-02-26T20:32:54.541Z,8.84
2023-02-26T20:38:02.766Z,7.50
2023-02-26T20:43:08.901Z,7.08
2023-02-26T20:48:15.037Z,6.27
2023-02-26T20:53:21.237Z,6.45
2023-02-26T20:58:27.391Z,6.73
2023-02-26T21:03:33.602Z,7.06
2023-02-26T21:08:40.085Z,6.86
2023-02-26T21:13:46.320Z,7.51
2023-02-26T21:18:52.639Z,7.62
2023-02-26T21:23:58.843Z,6.90
2023-02-26T21:29:04.973Z,6.40
2023-02-26T21:34:30.255Z,6.17
2023-02-26T21:39:16.762Z,5.92
2023-02-26T21:44:23.120Z,6.52
2023-02-26T21:49:29.169Z,6.62
2023-02-26T21:54:35.391Z,6.46
2023-02-26T21:59:41.463Z,6.57
2023-02-26T22:04:47.725Z,6.31
2023-02-26T22:09:53.857Z,5.71
2023-02-26T22:15:00.113Z,5.54
2023-02-26T22:20:06.225Z,5.36
2023-02-26T22:25:12.399Z,5.56
2023-02-26T22:30:18.544Z,5.51
2023-02-26T22:35:24.728Z,5.49
2023-02-26T22:40:30.813Z,5.11
2023-02-26T22:45:37.085Z,5.55
2023-02-26T22:50:43.161Z,5.53
2023-02-26T22:55:49.318Z,5.54
2023-02-26T23:00:55.480Z,5.31
2023-02-26T23:06:01.704Z,5.87
2023-02-26T23:11:07.863Z,6.67
2023-02-26T23:16:14.239Z,6.58
2023-02-26T23:21:20.256Z,6.97
2023-02-26T23:26:26.533Z,7.04
2023-02-26T23:31:32.776Z,6.96
2023-02-26T23:36:38.925Z,7.31
2023-02-26T23:41:45.026Z,6.63
2023-02-26T23:46:51.220Z,7.06
2023-02-26T23:51:57.303Z,7.22
2023-02-26T23:57:03.630Z,7.26
